sensor_id;sensor_type;location;lat;lon;timestamp;pressure;altitude;pressure_sealevel;temperature;humidity
72210;BME280;60113;48.762;12.302;2022-10-31T00:00:41;97702.88;;;6.12;84.94
72210;BME280;60113;48.762;12.302;2022-10-31T00:03:06;97704.41;;;6.16;84.21
72210;BME280;60113;48.762;12.302;2022-10-31T00:05:32;97703.16;;;6.23;85.95
72210;BME280;60113;48.762;12.302;2022-10-31T00:07:57;97703.63;;;6.32;84.73
72210;BME280;60113;48.762;12.302;2022-10-31T00:10:25;97702.22;;;6.42;85.15
72210;BME280;60113;48.762;12.302;2022-10-31T00:12:51;97700.84;;;6.53;85.01
72210;BME280;60113;48.762;12.302;2022-10-31T00:15:19;97703.22;;;6.57;83.77
72210;BME280;60113;48.762;12.302;2022-10-31T00:17:45;97693.75;;;6.55;83.95
72210;BME280;60113;48.762;12.302;2022-10-31T00:20:15;97707.97;;;6.49;84.02
72210;BME280;60113;48.762;12.302;2022-10-31T00:22:45;97703.22;;;6.40;84.47
72210;BME280;60113;48.762;12.302;2022-10-31T00:25:11;97703.72;;;6.30;85.37
72210;BME280;60113;48.762;12.302;2022-10-31T00:27:39;97701.56;;;6.21;84.64
72210;BME280;60113;48.762;12.302;2022-10-31T00:30:05;97710.03;;;6.08;87.19
72210;BME280;60113;48.762;12.302;2022-10-31T00:32:31;97707.16;;;5.95;86.37
72210;BME280;60113;48.762;12.302;2022-10-31T00:34:59;97706.84;;;5.84;86.20
72210;BME280;60113;48.762;12.302;2022-10-31T00:37:24;97709.13;;;5.72;85.65
72210;BME280;60113;48.762;12.302;2022-10-31T00:39:50;97707.81;;;5.63;86.47
72210;BME280;60113;48.762;12.302;2022-10-31T00:42:15;97708.25;;;5.54;87.26
72210;BME280;60113;48.762;12.302;2022-10-31T00:44:44;97705.94;;;5.48;83.37
72210;BME280;60113;48.762;12.302;2022-10-31T00:47:09;97709.63;;;5.44;84.51
72210;BME280;60113;48.762;12.302;2022-10-31T00:49:34;97713.28;;;5.40;84.81
72210;BME280;60113;48.762;12.302;2022-10-31T00:52:02;97711.75;;;5.35;86.08
72210;BME280;60113;48.762;12.302;2022-10-31T00:54:28;97711.16;;;5.30;85.36
72210;BME280;60113;48.762;12.302;2022-10-31T00:56:58;97715.50;;;5.30;85.31
72210;BME280;60113;48.762;12.302;2022-10-31T00:59:23;97713.03;;;5.27;86.60
72210;BME280;60113;48.762;12.302;2022-10-31T01:01:49;97717.41;;;5.26;86.15
72210;BME280;60113;48.762;12.302;2022-10-31T01:04:14;97707.03;;;5.24;85.41
72210;BME280;60113;48.762;12.302;2022-10-31T01:06:42;97712.25;;;5.24;85.72
72210;BME280;60113;48.762;12.302;2022-10-31T01:09:08;97711.34;;;5.25;83.56
72210;BME280;60113;48.762;12.302;2022-10-31T01:11:34;97713.03;;;5.27;83.13
72210;BME280;60113;48.762;12.302;2022-10-31T01:13:59;97713.09;;;5.25;85.42
72210;BME280;60113;48.762;12.302;2022-10-31T01:16:27;97707.81;;;5.27;82.36
72210;BME280;60113;48.762;12.302;2022-10-31T01:18:54;97705.28;;;5.25;85.26
72210;BME280;60113;48.762;12.302;2022-10-31T01:21:22;97703.63;;;5.24;85.06
72210;BME280;60113;48.762;12.302;2022-10-31T01:23:49;97701.97;;;5.21;84.98
72210;BME280;60113;48.762;12.302;2022-10-31T01:26:20;97704.66;;;5.20;84.92
72210;BME280;60113;48.762;12.302;2022-10-31T01:28:52;97707.47;;;5.15;85.24
72210;BME280;60113;48.762;12.302;2022-10-31T01:31:25;97698.91;;;5.13;85.43
72210;BME280;60113;48.762;12.302;2022-10-31T01:33:53;97698.19;;;5.09;85.39
72210;BME280;60113;48.762;12.302;2022-10-31T01:36:28;97697.47;;;5.06;85.55
72210;BME280;60113;48.762;12.302;2022-10-31T01:38:57;97695.09;;;5.01;84.75
72210;BME280;60113;48.762;12.302;2022-10-31T01:41:26;97697.91;;;4.96;85.38
72210;BME280;60113;48.762;12.302;2022-10-31T01:43:57;97689.34;;;4.94;85.45
72210;BME280;60113;48.762;12.302;2022-10-31T01:46:42;97693.69;;;4.94;86.67
72210;BME280;60113;48.762;12.302;2022-10-31T01:49:16;97698.19;;;4.90;85.13
72210;BME280;60113;48.762;12.302;2022-10-31T01:51:53;97709.53;;;4.89;85.60
72210;BME280;60113;48.762;12.302;2022-10-31T01:54:23;97707.00;;;4.87;85.47
72210;BME280;60113;48.762;12.302;2022-10-31T01:56:53;97708.75;;;4.87;85.36
72210;BME280;60113;48.762;12.302;2022-10-31T01:59:21;97704.47;;;4.86;85.31
72210;BME280;60113;48.762;12.302;2022-10-31T02:01:50;97707.84;;;4.88;86.04
72210;BME280;60113;48.762;12.302;2022-10-31T02:04:18;97701.72;;;4.89;86.90
72210;BME280;60113;48.762;12.302;2022-10-31T02:06:57;97712.91;;;4.91;87.01
72210;BME280;60113;48.762;12.302;2022-10-31T02:09:25;97703.47;;;4.88;84.93
72210;BME280;60113;48.762;12.302;2022-10-31T02:11:52;97706.94;;;4.89;84.66
72210;BME280;60113;48.762;12.302;2022-10-31T02:14:22;97710.44;;;4.88;82.78
72210;BME280;60113;48.762;12.302;2022-10-31T02:16:49;97712.28;;;4.86;84.27
72210;BME280;60113;48.762;12.302;2022-10-31T02:19:21;97713.19;;;4.85;84.66
72210;BME280;60113;48.762;12.302;2022-10-31T02:22:02;97714.03;;;4.85;84.71
72210;BME280;60113;48.762;12.302;2022-10-31T02:32:38;97711.00;;;4.75;85.61
72210;BME280;60113;48.762;12.302;2022-10-31T02:40:59;97708.53;;;4.72;86.15
72210;BME280;60113;48.762;12.302;2022-10-31T02:46:24;97702.06;;;4.81;84.91
72210;BME280;60113;48.762;12.302;2022-10-31T02:48:54;97702.06;;;4.81;84.80
72210;BME280;60113;48.762;12.302;2022-10-31T02:51:21;97700.31;;;4.82;85.81
72210;BME280;60113;48.762;12.302;2022-10-31T02:53:46;97700.25;;;4.83;84.83
72210;BME280;60113;48.762;12.302;2022-10-31T02:56:15;97700.25;;;4.83;85.59
72210;BME280;60113;48.762;12.302;2022-10-31T02:59:10;97706.28;;;4.84;87.58
72210;BME280;60113;48.762;12.302;2022-10-31T03:01:44;97705.59;;;4.80;87.10
72210;BME280;60113;48.762;12.302;2022-10-31T03:12:59;97721.50;;;4.74;88.11
72210;BME280;60113;48.762;12.302;2022-10-31T03:15:40;97723.88;;;4.79;91.73
72210;BME280;60113;48.762;12.302;2022-10-31T03:18:33;97719.63;;;4.76;89.47
72210;BME280;60113;48.762;12.302;2022-10-31T03:21:12;97722.19;;;4.78;88.25
72210;BME280;60113;48.762;12.302;2022-10-31T03:23:40;97730.84;;;4.78;86.08
72210;BME280;60113;48.762;12.302;2022-10-31T03:26:09;97728.97;;;4.82;84.50
72210;BME280;60113;48.762;12.302;2022-10-31T03:29:02;97725.22;;;4.87;86.25
72210;BME280;60113;48.762;12.302;2022-10-31T03:31:50;97720.66;;;4.93;87.07
72210;BME280;60113;48.762;12.302;2022-10-31T03:34:18;97727.41;;;4.97;84.35
72210;BME280;60113;48.762;12.302;2022-10-31T03:36:48;97725.38;;;5.04;84.61
72210;BME280;60113;48.762;12.302;2022-10-31T03:39:18;97722.56;;;5.08;85.66
72210;BME280;60113;48.762;12.302;2022-10-31T03:41:49;97726.78;;;5.11;83.82
72210;BME280;60113;48.762;12.302;2022-10-31T03:44:20;97729.25;;;5.14;86.71
72210;BME280;60113;48.762;12.302;2022-10-31T03:46:46;97738.59;;;5.18;87.22
72210;BME280;60113;48.762;12.302;2022-10-31T03:49:13;97733.25;;;5.21;85.92
72210;BME280;60113;48.762;12.302;2022-10-31T03:56:43;97736.91;;;5.17;87.11
72210;BME280;60113;48.762;12.302;2022-10-31T03:59:15;97733.59;;;5.13;88.05
72210;BME280;60113;48.762;12.302;2022-10-31T04:01:46;97727.63;;;5.11;88.88
72210;BME280;60113;48.762;12.302;2022-10-31T04:04:13;97727.63;;;5.11;88.56
72210;BME280;60113;48.762;12.302;2022-10-31T04:06:41;97731.84;;;5.14;87.06
72210;BME280;60113;48.762;12.302;2022-10-31T04:09:09;97729.09;;;5.17;89.15
72210;BME280;60113;48.762;12.302;2022-10-31T04:11:40;97726.44;;;5.19;88.70
72210;BME280;60113;48.762;12.302;2022-10-31T04:14:08;97727.34;;;5.18;87.06
72210;BME280;60113;48.762;12.302;2022-10-31T04:16:35;97724.75;;;5.18;87.25
72210;BME280;60113;48.762;12.302;2022-10-31T04:19:00;97725.56;;;5.18;86.84
72210;BME280;60113;48.762;12.302;2022-10-31T04:21:29;97726.50;;;5.17;87.23
72210;BME280;60113;48.762;12.302;2022-10-31T04:23:55;97730.72;;;5.20;86.74
72210;BME280;60113;48.762;12.302;2022-10-31T04:26:21;97729.75;;;5.22;86.97
72210;BME280;60113;48.762;12.302;2022-10-31T04:28:46;97728.75;;;5.25;87.06
72210;BME280;60113;48.762;12.302;2022-10-31T04:31:12;97734.66;;;5.29;88.67
72210;BME280;60113;48.762;12.302;2022-10-31T04:33:38;97731.13;;;5.30;88.50
72210;BME280;60113;48.762;12.302;2022-10-31T04:36:04;97729.31;;;5.32;88.88
72210;BME280;60113;48.762;12.302;2022-10-31T04:38:30;97727.47;;;5.34;87.83
72210;BME280;60113;48.762;12.302;2022-10-31T04:40:55;97733.44;;;5.36;88.36
72210;BME280;60113;48.762;12.302;2022-10-31T04:43:21;97740.28;;;5.38;87.12
72210;BME280;60113;48.762;12.302;2022-10-31T04:45:46;97741.06;;;5.41;87.75
72210;BME280;60113;48.762;12.302;2022-10-31T04:48:12;97743.59;;;5.42;86.65
72210;BME280;60113;48.762;12.302;2022-10-31T04:50:37;97740.13;;;5.42;86.78
72210;BME280;60113;48.762;12.302;2022-10-31T04:53:03;97738.38;;;5.42;87.45
72210;BME280;60113;48.762;12.302;2022-10-31T04:55:28;97733.91;;;5.44;87.85
72210;BME280;60113;48.762;12.302;2022-10-31T04:57:54;97738.22;;;5.45;87.46
72210;BME280;60113;48.762;12.302;2022-10-31T05:00:21;97738.09;;;5.48;87.85
72210;BME280;60113;48.762;12.302;2022-10-31T05:02:48;97740.53;;;5.52;87.93
72210;BME280;60113;48.762;12.302;2022-10-31T05:05:15;97743.91;;;5.54;88.18
72210;BME280;60113;48.762;12.302;2022-10-31T05:07:42;97739.41;;;5.57;88.09
72210;BME280;60113;48.762;12.302;2022-10-31T05:10:14;97744.47;;;5.60;88.09
72210;BME280;60113;48.762;12.302;2022-10-31T05:15:13;97738.88;;;5.68;87.93
72210;BME280;60113;48.762;12.302;2022-10-31T05:17:39;97730.00;;;5.72;88.40
72210;BME280;60113;48.762;12.302;2022-10-31T05:20:04;97740.19;;;5.77;88.45
72210;BME280;60113;48.762;12.302;2022-10-31T05:22:30;97736.53;;;5.81;86.46
72210;BME280;60113;48.762;12.302;2022-10-31T05:24:56;97739.75;;;5.86;88.22
72210;BME280;60113;48.762;12.302;2022-10-31T05:27:21;97740.44;;;5.90;89.06
72210;BME280;60113;48.762;12.302;2022-10-31T05:29:47;97738.53;;;5.94;88.68
72210;BME280;60113;48.762;12.302;2022-10-31T05:32:12;97734.00;;;5.97;88.08
72210;BME280;60113;48.762;12.302;2022-10-31T05:34:37;97735.53;;;6.01;88.13
72210;BME280;60113;48.762;12.302;2022-10-31T05:37:03;97733.66;;;6.05;87.96
72210;BME280;60113;48.762;12.302;2022-10-31T05:39:28;97739.56;;;6.09;87.53
72210;BME280;60113;48.762;12.302;2022-10-31T05:41:54;97732.41;;;6.12;87.83
72210;BME280;60113;48.762;12.302;2022-10-31T05:44:19;97733.13;;;6.16;88.10
72210;BME280;60113;48.762;12.302;2022-10-31T05:46:46;97738.19;;;6.19;88.12
72210;BME280;60113;48.762;12.302;2022-10-31T05:49:12;97741.50;;;6.23;86.27
72210;BME280;60113;48.762;12.302;2022-10-31T05:51:37;97737.78;;;6.27;87.29
72210;BME280;60113;48.762;12.302;2022-10-31T05:54:03;97739.41;;;6.30;88.30
72210;BME280;60113;48.762;12.302;2022-10-31T05:56:28;97737.47;;;6.33;87.97
72210;BME280;60113;48.762;12.302;2022-10-31T05:58:54;97735.56;;;6.37;88.21
72210;BME280;60113;48.762;12.302;2022-10-31T06:01:19;97738.94;;;6.39;88.46
72210;BME280;60113;48.762;12.302;2022-10-31T06:03:45;97741.53;;;6.39;89.42
72210;BME280;60113;48.762;12.302;2022-10-31T06:06:10;97743.25;;;6.40;89.16
72210;BME280;60113;48.762;12.302;2022-10-31T06:08:36;97735.34;;;6.42;88.65
72210;BME280;60113;48.762;12.302;2022-10-31T06:11:02;97736.84;;;6.46;88.35
72210;BME280;60113;48.762;12.302;2022-10-31T06:13:27;97741.06;;;6.48;88.49
72210;BME280;60113;48.762;12.302;2022-10-31T06:15:53;97736.63;;;6.50;88.52
72210;BME280;60113;48.762;12.302;2022-10-31T06:18:18;97743.44;;;6.53;88.19
72210;BME280;60113;48.762;12.302;2022-10-31T06:20:44;97739.06;;;6.54;89.70
72210;BME280;60113;48.762;12.302;2022-10-31T06:23:09;97744.22;;;6.55;87.98
72210;BME280;60113;48.762;12.302;2022-10-31T06:25:35;97743.38;;;6.55;89.08
72210;BME280;60113;48.762;12.302;2022-10-31T06:28:00;97744.06;;;6.58;89.40
72210;BME280;60113;48.762;12.302;2022-10-31T06:30:26;97742.13;;;6.62;89.45
72210;BME280;60113;48.762;12.302;2022-10-31T06:32:52;97743.75;;;6.65;90.08
72210;BME280;60113;48.762;12.302;2022-10-31T06:35:17;97738.19;;;6.71;90.11
72210;BME280;60113;48.762;12.302;2022-10-31T06:37:50;97737.09;;;6.75;90.97
72210;BME280;60113;48.762;12.302;2022-10-31T06:40:16;97742.16;;;6.78;90.45
72210;BME280;60113;48.762;12.302;2022-10-31T06:42:41;97741.06;;;6.82;91.29
72210;BME280;60113;48.762;12.302;2022-10-31T06:45:07;97741.06;;;6.82;89.60
72210;BME280;60113;48.762;12.302;2022-10-31T06:47:32;97742.78;;;6.83;87.62
72210;BME280;60113;48.762;12.302;2022-10-31T06:49:58;97748.00;;;6.83;87.25
72210;BME280;60113;48.762;12.302;2022-10-31T06:52:23;97751.34;;;6.85;88.42
72210;BME280;60113;48.762;12.302;2022-10-31T06:54:49;97750.38;;;6.88;88.82
72210;BME280;60113;48.762;12.302;2022-10-31T06:57:14;97748.41;;;6.92;90.47
72210;BME280;60113;48.762;12.302;2022-10-31T06:59:40;97751.56;;;6.98;88.63
72210;BME280;60113;48.762;12.302;2022-10-31T07:02:09;97752.16;;;7.04;89.45
72210;BME280;60113;48.762;12.302;2022-10-31T07:04:35;97752.75;;;7.09;89.12
72210;BME280;60113;48.762;12.302;2022-10-31T07:07:00;97756.81;;;7.15;89.33
72210;BME280;60113;48.762;12.302;2022-10-31T07:09:26;97752.09;;;7.21;88.86
72210;BME280;60113;48.762;12.302;2022-10-31T07:11:52;97763.84;;;7.30;88.43
72210;BME280;60113;48.762;12.302;2022-10-31T07:14:18;97764.31;;;7.37;90.23
72210;BME280;60113;48.762;12.302;2022-10-31T07:16:43;97766.59;;;7.43;91.40
72210;BME280;60113;48.762;12.302;2022-10-31T07:19:09;97766.25;;;7.49;89.72
72210;BME280;60113;48.762;12.302;2022-10-31T07:21:34;97770.28;;;7.55;90.10
72210;BME280;60113;48.762;12.302;2022-10-31T07:24:00;97769.78;;;7.65;91.24
72210;BME280;60113;48.762;12.302;2022-10-31T07:26:25;97766.75;;;7.72;91.00
72210;BME280;60113;48.762;12.302;2022-10-31T07:28:52;97767.94;;;7.83;90.63
72210;BME280;60113;48.762;12.302;2022-10-31T07:31:18;97764.78;;;7.92;90.84
72210;BME280;60113;48.762;12.302;2022-10-31T07:33:43;97763.41;;;8.01;90.67
72210;BME280;60113;48.762;12.302;2022-10-31T07:36:09;97768.22;;;8.09;90.19
72210;BME280;60113;48.762;12.302;2022-10-31T07:38:34;97761.19;;;8.09;92.94
72210;BME280;60113;48.762;12.302;2022-10-31T07:41:00;97765.78;;;8.06;94.49
72210;BME280;60113;48.762;12.302;2022-10-31T07:43:25;97762.47;;;8.02;96.38
72210;BME280;60113;48.762;12.302;2022-10-31T07:45:52;97759.69;;;8.05;94.51
72210;BME280;60113;48.762;12.302;2022-10-31T07:48:18;97761.94;;;8.11;94.05
72210;BME280;60113;48.762;12.302;2022-10-31T07:50:43;97760.66;;;8.19;93.44
72210;BME280;60113;48.762;12.302;2022-10-31T07:53:11;97763.25;;;8.19;94.84
72210;BME280;60113;48.762;12.302;2022-10-31T07:55:37;97766.56;;;8.22;95.29
72210;BME280;60113;48.762;12.302;2022-10-31T07:58:05;97752.44;;;8.25;96.32
72210;BME280;60113;48.762;12.302;2022-10-31T08:00:32;97763.00;;;8.23;97.05
72210;BME280;60113;48.762;12.302;2022-10-31T08:03:03;97763.66;;;8.27;96.67
72210;BME280;60113;48.762;12.302;2022-10-31T08:05:30;97763.00;;;8.23;98.04
72210;BME280;60113;48.762;12.302;2022-10-31T08:07:56;97758.97;;;8.18;100.00
72210;BME280;60113;48.762;12.302;2022-10-31T08:10:23;97751.13;;;8.18;100.00
72210;BME280;60113;48.762;12.302;2022-10-31T08:13:02;97755.41;;;8.19;100.00
72210;BME280;60113;48.762;12.302;2022-10-31T08:15:29;97752.88;;;8.17;100.00
72210;BME280;60113;48.762;12.302;2022-10-31T08:17:54;97758.53;;;8.25;100.00
72210;BME280;60113;48.762;12.302;2022-10-31T08:20:21;97760.41;;;8.38;100.00
72210;BME280;60113;48.762;12.302;2022-10-31T08:22:56;97755.69;;;8.45;100.00
72210;BME280;60113;48.762;12.302;2022-10-31T08:25:23;97743.50;;;8.44;100.00
72210;BME280;60113;48.762;12.302;2022-10-31T08:27:53;97737.06;;;8.49;100.00
72210;BME280;60113;48.762;12.302;2022-10-31T08:30:20;97728.19;;;8.52;100.00
72210;BME280;60113;48.762;12.302;2022-10-31T08:32:46;97732.56;;;8.51;100.00
72210;BME280;60113;48.762;12.302;2022-10-31T08:35:12;97725.56;;;8.52;100.00
72210;BME280;60113;48.762;12.302;2022-10-31T08:37:37;97721.75;;;8.58;100.00
72210;BME280;60113;48.762;12.302;2022-10-31T08:40:04;97724.84;;;8.65;100.00
72210;BME280;60113;48.762;12.302;2022-10-31T08:42:29;97716.63;;;8.71;100.00
72210;BME280;60113;48.762;12.302;2022-10-31T08:44:55;97715.97;;;8.82;100.00
72210;BME280;60113;48.762;12.302;2022-10-31T08:47:20;97717.53;;;8.84;100.00
72210;BME280;60113;48.762;12.302;2022-10-31T08:49:46;97720.72;;;8.90;100.00
72210;BME280;60113;48.762;12.302;2022-10-31T08:52:11;97712.22;;;9.00;100.00
72210;BME280;60113;48.762;12.302;2022-10-31T08:54:37;97705.53;;;9.09;100.00
72210;BME280;60113;48.762;12.302;2022-10-31T08:57:02;97702.63;;;9.14;100.00
72210;BME280;60113;48.762;12.302;2022-10-31T08:59:28;97697.00;;;9.20;100.00
72210;BME280;60113;48.762;12.302;2022-10-31T09:01:53;97701.56;;;9.31;100.00
72210;BME280;60113;48.762;12.302;2022-10-31T09:04:20;97695.72;;;9.41;100.00
72210;BME280;60113;48.762;12.302;2022-10-31T09:06:46;97695.22;;;9.48;100.00
72210;BME280;60113;48.762;12.302;2022-10-31T09:09:11;97690.59;;;9.52;100.00
72210;BME280;60113;48.762;12.302;2022-10-31T09:11:37;97701.34;;;9.62;100.00
72210;BME280;60113;48.762;12.302;2022-10-31T09:14:02;97698.03;;;9.73;100.00
72210;BME280;60113;48.762;12.302;2022-10-31T09:16:28;97696.97;;;9.75;100.00
72210;BME280;60113;48.762;12.302;2022-10-31T09:18:53;97698.91;;;9.86;99.89
72210;BME280;60113;48.762;12.302;2022-10-31T09:21:19;97695.16;;;9.91;99.28
72210;BME280;60113;48.762;12.302;2022-10-31T09:23:45;97693.91;;;9.96;99.51
72210;BME280;60113;48.762;12.302;2022-10-31T09:26:10;97690.75;;;10.04;98.87
72210;BME280;60113;48.762;12.302;2022-10-31T09:28:36;97688.22;;;10.16;97.80
72210;BME280;60113;48.762;12.302;2022-10-31T09:31:01;97682.34;;;10.25;95.82
72210;BME280;60113;48.762;12.302;2022-10-31T09:33:27;97687.00;;;10.34;95.57
72210;BME280;60113;48.762;12.302;2022-10-31T09:35:52;97693.31;;;10.45;95.46
72210;BME280;60113;48.762;12.302;2022-10-31T09:38:20;97694.38;;;10.55;94.98
72210;BME280;60113;48.762;12.302;2022-10-31T09:49:21;97688.22;;;11.07;95.68
72210;BME280;60113;48.762;12.302;2022-10-31T09:54:45;97686.69;;;11.29;93.43
72210;BME280;60113;48.762;12.302;2022-10-31T09:57:16;97686.09;;;11.36;93.80
72210;BME280;60113;48.762;12.302;2022-10-31T09:59:44;97688.78;;;11.48;94.58
72210;BME280;60113;48.762;12.302;2022-10-31T10:05:00;97673.66;;;11.63;93.31
72210;BME280;60113;48.762;12.302;2022-10-31T10:07:40;97667.47;;;11.64;93.77
72210;BME280;60113;48.762;12.302;2022-10-31T10:10:28;97666.97;;;11.59;93.94
72210;BME280;60113;48.762;12.302;2022-10-31T10:13:12;97671.25;;;11.60;94.09
72210;BME280;60113;48.762;12.302;2022-10-31T10:26:21;97659.09;;;12.06;93.49
72210;BME280;60113;48.762;12.302;2022-10-31T10:28:56;97658.66;;;12.12;93.46
72210;BME280;60113;48.762;12.302;2022-10-31T10:31:32;97643.22;;;12.19;93.73
72210;BME280;60113;48.762;12.302;2022-10-31T10:34:29;97646.22;;;12.15;93.27
72210;BME280;60113;48.762;12.302;2022-10-31T10:37:04;97648.34;;;12.09;93.25
72210;BME280;60113;48.762;12.302;2022-10-31T10:39:38;97640.69;;;12.18;93.28
72210;BME280;60113;48.762;12.302;2022-10-31T10:42:14;97632.91;;;12.16;93.38
72210;BME280;60113;48.762;12.302;2022-10-31T10:45:00;97640.00;;;11.80;94.48
72210;BME280;60113;48.762;12.302;2022-10-31T10:47:57;97643.66;;;11.66;95.45
72210;BME280;60113;48.762;12.302;2022-10-31T10:50:38;97630.13;;;11.59;96.29
72210;BME280;60113;48.762;12.302;2022-10-31T10:56:11;97625.94;;;11.56;96.31
72210;BME280;60113;48.762;12.302;2022-10-31T10:58:40;97618.97;;;11.55;97.78
72210;BME280;60113;48.762;12.302;2022-10-31T11:01:14;97616.63;;;11.63;96.57
72210;BME280;60113;48.762;12.302;2022-10-31T11:03:41;97619.88;;;11.79;95.84
72210;BME280;60113;48.762;12.302;2022-10-31T11:06:25;97619.34;;;11.98;95.69
72210;BME280;60113;48.762;12.302;2022-10-31T11:08:52;97610.13;;;11.92;95.34
72210;BME280;60113;48.762;12.302;2022-10-31T11:13:48;97607.03;;;11.98;94.65
72210;BME280;60113;48.762;12.302;2022-10-31T11:16:28;97600.06;;;11.86;95.28
72210;BME280;60113;48.762;12.302;2022-10-31T11:19:06;97601.25;;;11.93;95.05
72210;BME280;60113;48.762;12.302;2022-10-31T11:21:32;97601.88;;;11.97;94.88
72210;BME280;60113;48.762;12.302;2022-10-31T11:24:25;97609.88;;;12.07;93.81
72210;BME280;60113;48.762;12.302;2022-10-31T11:26:51;97598.41;;;12.08;93.51
72210;BME280;60113;48.762;12.302;2022-10-31T11:29:25;97596.03;;;12.16;94.72
72210;BME280;60113;48.762;12.302;2022-10-31T11:31:56;97584.19;;;12.22;93.94
72210;BME280;60113;48.762;12.302;2022-10-31T11:36:52;97587.69;;;11.75;95.64
72210;BME280;60113;48.762;12.302;2022-10-31T11:39:22;97588.03;;;11.70;95.26
72210;BME280;60113;48.762;12.302;2022-10-31T11:41:50;97586.22;;;11.71;95.70
72210;BME280;60113;48.762;12.302;2022-10-31T11:44:27;97574.66;;;11.73;95.66
72210;BME280;60113;48.762;12.302;2022-10-31T11:46:56;97583.13;;;11.77;95.68
72210;BME280;60113;48.762;12.302;2022-10-31T11:49:34;97573.69;;;11.74;96.10
72210;BME280;60113;48.762;12.302;2022-10-31T11:52:06;97568.66;;;11.71;95.67
72210;BME280;60113;48.762;12.302;2022-10-31T11:54:50;97563.28;;;11.73;96.73
72210;BME280;60113;48.762;12.302;2022-10-31T11:57:31;97564.00;;;11.75;96.43
72210;BME280;60113;48.762;12.302;2022-10-31T11:59:59;97568.19;;;11.78;96.29
72210;BME280;60113;48.762;12.302;2022-10-31T12:02:25;97561.97;;;11.79;96.63
72210;BME280;60113;48.762;12.302;2022-10-31T12:05:04;97563.75;;;11.67;97.63
72210;BME280;60113;48.762;12.302;2022-10-31T12:07:33;97554.75;;;11.69;96.63
72210;BME280;60113;48.762;12.302;2022-10-31T12:09:58;97551.66;;;11.64;97.39
72210;BME280;60113;48.762;12.302;2022-10-31T12:15:36;97540.97;;;11.54;98.49
72210;BME280;60113;48.762;12.302;2022-10-31T12:23:57;97533.16;;;11.41;98.31
72210;BME280;60113;48.762;12.302;2022-10-31T12:34:58;97515.47;;;11.07;100.00
72210;BME280;60113;48.762;12.302;2022-10-31T12:40:09;97508.50;;;11.19;100.00
72210;BME280;60113;48.762;12.302;2022-10-31T12:45:59;97511.53;;;11.02;100.00
72210;BME280;60113;48.762;12.302;2022-10-31T12:52:06;97516.34;;;10.83;100.00
72210;BME280;60113;48.762;12.302;2022-10-31T12:54:56;97493.50;;;10.84;100.00
72210;BME280;60113;48.762;12.302;2022-10-31T12:57:33;97495.31;;;10.83;100.00
72210;BME280;60113;48.762;12.302;2022-10-31T13:05:24;97490.44;;;10.90;100.00
72210;BME280;60113;48.762;12.302;2022-10-31T13:08:19;97480.06;;;11.00;100.00
72210;BME280;60113;48.762;12.302;2022-10-31T13:10:47;97489.53;;;11.03;100.00
72210;BME280;60113;48.762;12.302;2022-10-31T13:13:37;97492.16;;;11.03;100.00
72210;BME280;60113;48.762;12.302;2022-10-31T13:16:18;97476.88;;;11.08;100.00
72210;BME280;60113;48.762;12.302;2022-10-31T13:18:48;97474.13;;;11.09;100.00
72210;BME280;60113;48.762;12.302;2022-10-31T13:21:22;97477.38;;;11.13;100.00
72210;BME280;60113;48.762;12.302;2022-10-31T13:23:50;97477.50;;;11.11;100.00
72210;BME280;60113;48.762;12.302;2022-10-31T13:26:41;97470.31;;;11.13;100.00
72210;BME280;60113;48.762;12.302;2022-10-31T13:31:45;97468.06;;;11.20;100.00
72210;BME280;60113;48.762;12.302;2022-10-31T13:34:20;97468.09;;;11.32;100.00
72210;BME280;60113;48.762;12.302;2022-10-31T13:36:55;97465.38;;;11.33;100.00
72210;BME280;60113;48.762;12.302;2022-10-31T13:42:20;97459.50;;;11.41;100.00
72210;BME280;60113;48.762;12.302;2022-10-31T13:44:48;97457.31;;;11.35;100.00
72210;BME280;60113;48.762;12.302;2022-10-31T13:47:23;97455.06;;;11.30;100.00
72210;BME280;60113;48.762;12.302;2022-10-31T13:49:49;97448.63;;;11.34;98.96
72210;BME280;60113;48.762;12.302;2022-10-31T13:52:24;97449.81;;;11.42;98.44
72210;BME280;60113;48.762;12.302;2022-10-31T13:54:51;97440.47;;;11.49;97.18
72210;BME280;60113;48.762;12.302;2022-10-31T14:02:34;97444.47;;;11.55;96.17
72210;BME280;60113;48.762;12.302;2022-10-31T14:05:03;97438.34;;;11.54;97.21
72210;BME280;60113;48.762;12.302;2022-10-31T14:07:32;97431.31;;;11.55;95.80
72210;BME280;60113;48.762;12.302;2022-10-31T14:10:19;97429.59;;;11.54;97.83
72210;BME280;60113;48.762;12.302;2022-10-31T14:12:47;97428.75;;;11.42;99.34
72210;BME280;60113;48.762;12.302;2022-10-31T14:15:23;97426.38;;;11.27;100.00
72210;BME280;60113;48.762;12.302;2022-10-31T14:18:06;97426.94;;;11.19;100.00
72210;BME280;60113;48.762;12.302;2022-10-31T14:20:43;97426.44;;;11.14;100.00
72210;BME280;60113;48.762;12.302;2022-10-31T14:29:00;97423.47;;;11.19;100.00
72210;BME280;60113;48.762;12.302;2022-10-31T14:31:36;97414.38;;;11.23;100.00
72210;BME280;60113;48.762;12.302;2022-10-31T14:45:27;97413.81;;;11.42;100.00
72210;BME280;60113;48.762;12.302;2022-10-31T14:50:57;97406.06;;;11.41;100.00
72210;BME280;60113;48.762;12.302;2022-10-31T14:53:46;97407.09;;;11.38;100.00
72210;BME280;60113;48.762;12.302;2022-10-31T14:56:19;97405.09;;;11.30;100.00
72210;BME280;60113;48.762;12.302;2022-10-31T14:58:47;97394.19;;;11.23;100.00
72210;BME280;60113;48.762;12.302;2022-10-31T15:01:36;97401.47;;;11.20;100.00
72210;BME280;60113;48.762;12.302;2022-10-31T15:04:23;97392.88;;;11.18;100.00
72210;BME280;60113;48.762;12.302;2022-10-31T15:07:03;97398.38;;;11.15;100.00
72210;BME280;60113;48.762;12.302;2022-10-31T15:09:34;97390.94;;;11.08;100.00
72210;BME280;60113;48.762;12.302;2022-10-31T15:12:05;97388.16;;;10.98;100.00
72210;BME280;60113;48.762;12.302;2022-10-31T15:14:42;97382.75;;;10.88;100.00
72210;BME280;60113;48.762;12.302;2022-10-31T15:17:10;97388.00;;;10.88;100.00